Sterling, MA (01564)

1:39 PM EST on December 04, 2016 (GMT -0500)
Beaman Rd | | Change Station

Elev 659 ft 42.44 °N, 71.78 °W | Updated 2 seconds ago

Clear
Clear
39.7 °F
Feels Like 40 °F
N
2.0
Wind Variable Wind from NNW
Gusts 2.0 mph

Today
High -- | Low -- °F
--% Chance of Precip.
Yesterday
High -- | Low -- °F
Precip. -- in
Pressure 30.17 in
Visibility 10.0 miles
Clouds Clear
Windchill 40 °F
Dew Point 23 °F
Humidity 50%
Rainfall 0.00 in
Snow Depth Not available.
7:00 AM 4:14 PM
Waxing Crescent, 24% visible
METAR KFIT 041752Z AUTO 34010KT 10SM CLR 05/M08 A3016 RMK AO2 SLP217 T00501078 10056 20011 56012
Pressure 30.17 in
Visibility 10.0 miles
Clouds Clear
Windchill 40 °F
Dew Point 23 °F
Humidity 50%
Rainfall 0.00 in
Snow Depth Not available.
7:00 AM 4:14 PM
Waxing Crescent, 24% visible
METAR KFIT 041752Z AUTO 34010KT 10SM CLR 05/M08 A3016 RMK AO2 SLP217 T00501078 10056 20011 56012

10-Day Weather Forecast

Almanac

Astronomy

Dec. 04, 2016 Rise Set
Actual Time
Civil Twilight
Nautical Twilight
Astronomical Twilight
Moon
Length of Visible Light
Length of Day
Tomorrow will be .
, % of the Moon is Illuminated

Today's Extremes

State Highs State Lows

Community

WunderPhotos

Upload Photos

1,955,640 photos uploaded!

WunderBlog® & News

Nearby

Air Quality

  Air Quality AQ Index Pollutant
Not available.

Snow Depth

Station Depth Elevation

Earthquake Activity

City Distance Mag. Time & Date
Minimum magnitude displayed is 2.5.

Coastal Water Temperatures

Place Temperature

Stations

Nearby Weather Stations

Station Location Temp. Windchill Dew Point Humidity Wind Precip. Elev Updated Type
                   

Watches & Warnings

There are currently no watches in effect.